Dawson Community Airport Glendive US
ICAO: KGDV
IATA: GDV
Category: Medium
Scheduled Services: No

Elevation: 2458 ft
TransAlt. 18000 ft.

Airport Communications:
AWOS 3:135.075
GREAT FALLS RDO:122.55
CTAF/UNICOM:122.8

KGDV Zoom In..

If you have problems with the map follow the link
https://www.worldairports.se/pages/airport.php?
ICAO=KGDV

Runways:

(A) RW 02 length 3002 ft width 60 ft
---- / hdg 23

(B) RW 12 length 5704 ft width 100 ft
---- / hdg 123

(C) RW 20 length 3002 ft width 60 ft
---- / hdg 203

(D) RW 30 length 5704 ft width 100 ft
---- / hdg 303

Location; KGDV
Day. 16 / Time. 03.56 Zulu
* Altimeter: 29.98
* Temperature: 00° c. 32°f.
* Wind from: 000° Speed 00 kn.
Dewpoint: -02° c.
Visibility: 10 Statute Miles.
Clouds: Few 12000 ft.

KGDV 160356Z AUTO 00000KT 10SM FEW120 00/M02 A2998 RMK AO2 SLP173 T00001017 FZRANO


Wind - Calm.

 
 
jpsmedia.com for Web Design worldairports.se 2018   terms of use